TimeEDT,TemperatureF,Dew PointF,Humidity,Sea Level PressureIn,VisibilityMPH,Wind Direction,Wind SpeedMPH,Gust SpeedMPH,PrecipitationIn,Events,Conditions,WindDirDegrees,DateUTC
12:14 AM,76.1,72.0,87,30.27,10.0,Calm,Calm,-,N/A,,Clear,0,2013-07-16 04:14:00
12:34 AM,75.0,72.5,92,30.27,10.0,Calm,Calm,-,N/A,,Clear,0,2013-07-16 04:34:00
12:54 AM,73.6,71.6,93,30.27,10.0,Calm,Calm,-,N/A,,Clear,0,2013-07-16 04:54:00
1:14 AM,73.9,72.7,96,30.27,10.0,Calm,Calm,-,N/A,,Clear,0,2013-07-16 05:14:00
1:34 AM,73.6,72.1,95,30.27,10.0,Calm,Calm,-,N/A,,Clear,0,2013-07-16 05:34:00
1:55 AM,72.7,71.6,96,30.28,10.0,Calm,Calm,-,N/A,,Clear,0,2013-07-16 05:55:00
2:14 AM,72.7,72.0,98,30.27,7.0,Calm,Calm,-,N/A,,Clear,0,2013-07-16 06:14:00
2:35 AM,72.0,71.6,99,30.27,7.0,Calm,Calm,-,N/A,,Clear,0,2013-07-16 06:35:00
2:55 AM,72.0,71.8,99,30.28,7.0,ESE,3.5,-,N/A,,Scattered Clouds,110,2013-07-16 06:55:00
3:15 AM,72.5,72.0,98,30.28,7.0,Calm,Calm,-,N/A,,Mostly Cloudy,0,2013-07-16 07:15:00
3:34 AM,73.6,73.0,98,30.28,10.0,Calm,Calm,-,N/A,,Mostly Cloudy,0,2013-07-16 07:34:00
3:55 AM,73.8,73.0,98,30.28,7.0,Calm,Calm,-,N/A,,Overcast,0,2013-07-16 07:55:00
4:14 AM,72.5,72.0,98,30.28,5.0,Calm,Calm,-,N/A,,Mostly Cloudy,0,2013-07-16 08:14:00
4:34 AM,72.7,72.5,99,30.28,5.0,Calm,Calm,-,N/A,,Mostly Cloudy,0,2013-07-16 08:34:00
4:55 AM,72.5,72.1,99,30.28,7.0,Calm,Calm,-,N/A,,Overcast,0,2013-07-16 08:55:00
5:15 AM,72.1,72.0,99,30.29,5.0,Calm,Calm,-,N/A,,Scattered Clouds,0,2013-07-16 09:15:00
5:35 AM,72.3,72.1,99,30.29,5.0,Calm,Calm,-,N/A,,Mostly Cloudy,0,2013-07-16 09:35:00
5:55 AM,72.1,72.0,99,30.29,7.0,Calm,Calm,-,N/A,,Overcast,0,2013-07-16 09:55:00
6:14 AM,72.0,72.0,100,30.29,5.0,Calm,Calm,-,N/A,,Overcast,0,2013-07-16 10:14:00
6:35 AM,71.6,71.4,99,30.30,3.0,Calm,Calm,-,N/A,,Overcast,0,2013-07-16 10:35:00
6:54 AM,72.1,72.0,99,30.30,5.0,Calm,Calm,-,N/A,,Mostly Cloudy,0,2013-07-16 10:54:00
7:15 AM,72.1,72.0,99,30.30,4.0,Calm,Calm,-,N/A,,Scattered Clouds,0,2013-07-16 11:15:00
7:34 AM,72.9,72.5,99,30.30,5.0,Calm,Calm,-,N/A,,Clear,0,2013-07-16 11:34:00
7:54 AM,75.2,72.1,90,30.30,10.0,Calm,Calm,-,N/A,,Clear,0,2013-07-16 11:54:00
8:15 AM,76.6,72.0,85,30.31,10.0,SSE,3.5,-,N/A,,Clear,160,2013-07-16 12:15:00
8:34 AM,77.9,73.0,85,30.31,10.0,South,3.5,-,N/A,,Clear,170,2013-07-16 12:34:00
8:55 AM,79.5,73.6,82,30.31,10.0,South,3.5,-,N/A,,Clear,190,2013-07-16 12:55:00
9:14 AM,80.4,73.0,78,30.31,10.0,SSW,3.5,-,N/A,,Clear,200,2013-07-16 13:14:00
9:35 AM,81.9,72.9,74,30.31,10.0,Calm,Calm,-,N/A,,Clear,0,2013-07-16 13:35:00
9:54 AM,83.5,73.2,71,30.31,10.0,SSW,3.5,-,N/A,,Clear,200,2013-07-16 13:54:00
10:15 AM,84.9,73.0,67,30.31,10.0,WSW,4.6,-,N/A,,Clear,250,2013-07-16 14:15:00
10:34 AM,85.5,72.7,65,30.30,10.0,SSW,6.9,-,N/A,,Clear,200,2013-07-16 14:34:00
10:55 AM,86.4,72.7,64,30.30,10.0,SW,3.5,-,N/A,,Clear,230,2013-07-16 14:55:00
11:14 AM,87.1,72.3,61,30.30,10.0,SW,5.8,-,N/A,,Clear,220,2013-07-16 15:14:00
11:35 AM,87.3,71.8,60,30.30,10.0,SW,5.8,-,N/A,,Scattered Clouds,220,2013-07-16 15:35:00
11:54 AM,87.8,70.9,57,30.30,10.0,South,3.5,-,N/A,,Scattered Clouds,190,2013-07-16 15:54:00
12:14 PM,89.6,70.5,53,30.30,10.0,SW,6.9,-,N/A,,Mostly Cloudy,230,2013-07-16 16:14:00
12:35 PM,89.2,69.3,52,30.30,10.0,SSW,8.1,-,N/A,,Scattered Clouds,210,2013-07-16 16:35:00
12:54 PM,90.1,68.9,49,30.30,10.0,South,9.2,-,N/A,,Mostly Cloudy,190,2013-07-16 16:54:00
1:15 PM,90.7,69.1,49,30.29,10.0,SSW,12.7,-,N/A,,Mostly Cloudy,200,2013-07-16 17:15:00
1:34 PM,90.5,68.7,49,30.29,10.0,SSW,10.4,-,N/A,,Mostly Cloudy,210,2013-07-16 17:34:00
1:55 PM,90.7,67.5,46,30.28,10.0,South,9.2,16.1,N/A,,Scattered Clouds,170,2013-07-16 17:55:00
2:15 PM,90.7,67.8,47,30.28,10.0,South,11.5,-,N/A,,Scattered Clouds,180,2013-07-16 18:15:00
2:34 PM,90.5,67.1,46,30.28,10.0,SSW,8.1,-,N/A,,Scattered Clouds,210,2013-07-16 18:34:00
2:55 PM,91.2,65.1,42,30.28,10.0,SSW,10.4,16.1,N/A,,Scattered Clouds,200,2013-07-16 18:55:00
3:14 PM,90.3,66.0,45,30.28,10.0,South,10.4,18.4,N/A,,Scattered Clouds,190,2013-07-16 19:14:00
3:35 PM,89.8,67.3,47,30.28,10.0,SW,12.7,16.1,N/A,,Scattered Clouds,220,2013-07-16 19:35:00
3:54 PM,90.0,66.9,46,30.28,10.0,SSW,11.5,16.1,N/A,,Scattered Clouds,210,2013-07-16 19:54:00
4:15 PM,89.2,67.1,48,30.28,10.0,SSW,12.7,16.1,N/A,,Clear,210,2013-07-16 20:15:00
4:35 PM,89.6,67.6,48,30.28,10.0,WSW,8.1,-,N/A,,Scattered Clouds,240,2013-07-16 20:35:00
4:54 PM,88.9,67.8,50,30.27,10.0,SW,11.5,-,N/A,,Scattered Clouds,220,2013-07-16 20:54:00
5:15 PM,89.6,68.0,49,30.27,10.0,SW,9.2,-,N/A,,Clear,220,2013-07-16 21:15:00
5:34 PM,88.3,67.8,50,30.27,10.0,SSW,10.4,-,N/A,,Scattered Clouds,210,2013-07-16 21:34:00
5:55 PM,87.8,67.3,50,30.27,10.0,SSW,11.5,-,N/A,,Scattered Clouds,200,2013-07-16 21:55:00
6:14 PM,88.0,67.3,50,30.27,10.0,SW,9.2,-,N/A,,Scattered Clouds,220,2013-07-16 22:14:00
6:35 PM,87.1,67.8,53,30.26,10.0,SSW,11.5,-,N/A,,Clear,210,2013-07-16 22:35:00
6:54 PM,86.9,68.0,53,30.26,10.0,SSW,9.2,-,N/A,,Clear,210,2013-07-16 22:54:00
7:15 PM,86.2,68.2,55,30.25,10.0,SW,9.2,-,N/A,,Clear,230,2013-07-16 23:15:00
7:34 PM,86.0,68.4,55,30.25,10.0,SSW,6.9,-,N/A,,Clear,200,2013-07-16 23:34:00
7:55 PM,85.1,69.1,59,30.26,10.0,SW,4.6,-,N/A,,Clear,220,2013-07-16 23:55:00
8:14 PM,84.7,68.4,58,30.26,10.0,SSW,8.1,-,N/A,,Clear,210,2013-07-17 00:14:00
8:35 PM,83.5,68.0,59,30.26,10.0,SSW,5.8,-,N/A,,Clear,210,2013-07-17 00:35:00
8:54 PM,82.4,69.3,64,30.25,10.0,SSW,3.5,-,N/A,,Clear,200,2013-07-17 00:54:00
9:15 PM,80.4,70.3,71,30.25,10.0,South,3.5,-,N/A,,Clear,190,2013-07-17 01:15:00
9:34 PM,79.0,70.7,76,30.25,10.0,Calm,Calm,-,N/A,,Clear,0,2013-07-17 01:34:00
9:55 PM,78.1,70.7,78,30.26,10.0,Calm,Calm,-,N/A,,Clear,0,2013-07-17 01:55:00
10:14 PM,77.2,70.3,79,30.27,10.0,Calm,Calm,-,N/A,,Clear,0,2013-07-17 02:14:00
10:35 PM,77.9,70.0,76,30.27,10.0,Calm,Calm,-,N/A,,Clear,0,2013-07-17 02:35:00
10:55 PM,76.5,69.8,80,30.27,10.0,Calm,Calm,-,N/A,,Clear,0,2013-07-17 02:55:00
11:14 PM,75.7,70.0,82,30.27,10.0,Calm,Calm,-,N/A,,Clear,0,2013-07-17 03:14:00
11:35 PM,74.8,70.3,86,30.26,10.0,Calm,Calm,-,N/A,,Clear,0,2013-07-17 03:35:00
11:54 PM,74.8,70.7,87,30.26,10.0,Calm,Calm,-,N/A,,Clear,0,2013-07-17 03:54:00